Time;durP1;ratioP1;P1;durP2;ratioP2;P2;SDS_P1;SDS_P2;PMS_P1;PMS_P2;Temp;Humidity;BMP_temperature;BMP_pressure;BME280_temperature;BME280_humidity;BME280_pressure;Samples;Min_cycle;Max_cycle;Signal;HPM_P1;HPM_P2
2021/12/21 00:00:18;;;;;;;6.62;3.85;;;;;;;4.34;81.47;99085.34;1756307;80;22207;-64
2021/12/21 00:02:50;;;;;;;5.28;3.52;;;;;;;4.31;81.20;99082.30;1755556;80;20987;-69
2021/12/21 00:05:19;;;;;;;6.40;3.65;;;;;;;4.48;80.08;99084.30;1754956;80;22130;-63
2021/12/21 00:07:47;;;;;;;6.67;4.03;;;;;;;4.57;79.09;99091.80;1742141;81;21056;-63
2021/12/21 00:10:19;;;;;;;6.87;3.72;;;;;;;4.42;79.62;99096.09;1722062;81;22187;-63
2021/12/21 00:15:46;;;;;;;5.28;2.87;;;;;;;4.26;83.90;99099.59;1754461;80;21080;-66
2021/12/21 00:18:04;;;;;;;5.95;3.67;;;;;;;4.40;84.83;99098.06;1752658;80;21157;-63
2021/12/21 00:20:50;;;;;;;7.60;3.60;;;;;;;4.52;82.90;99101.05;1742620;81;21554;-68
2021/12/21 00:25:45;;;;;;;8.93;5.35;;;;;;;4.49;83.23;99102.18;1690833;82;21050;-64
2021/12/21 00:28:12;;;;;;;13.50;6.58;;;;;;;4.45;82.15;99100.13;1747553;80;21019;-65
2021/12/21 00:30:39;;;;;;;12.05;6.08;;;;;;;4.42;82.21;99099.97;1738146;81;23089;-64
2021/12/21 00:33:07;;;;;;;9.75;5.45;;;;;;;4.49;80.54;99103.97;1746109;80;21644;-68
2021/12/21 00:35:36;;;;;;;10.95;6.03;;;;;;;4.54;79.66;99101.16;1745366;80;21496;-64
2021/12/21 00:38:04;;;;;;;9.73;5.40;;;;;;;4.54;78.15;99111.48;1752338;80;20994;-64
2021/12/21 00:40:31;;;;;;;8.65;4.58;;;;;;;4.55;78.18;99116.98;1757684;80;20951;-62
2021/12/21 00:42:58;;;;;;;9.50;5.45;;;;;;;4.50;80.05;99116.68;1761970;80;21161;-64
2021/12/21 00:45:24;;;;;;;7.95;4.42;;;;;;;4.82;78.79;99118.73;1760668;80;21069;-62
2021/12/21 00:47:51;;;;;;;8.45;4.08;;;;;;;5.01;78.63;99120.02;1762124;80;21080;-64
2021/12/21 00:50:22;;;;;;;10.00;4.60;;;;;;;5.06;79.07;99116.42;1760724;80;21021;-69
2021/12/21 00:52:52;;;;;;;9.50;4.50;;;;;;;4.93;80.28;99120.89;1762439;80;21085;-65
2021/12/21 00:55:19;;;;;;;8.23;4.42;;;;;;;4.87;80.83;99122.88;1759397;80;21531;-67
2021/12/21 00:57:47;;;;;;;8.50;4.28;;;;;;;5.01;78.14;99123.41;1761337;80;21152;-64
2021/12/21 01:00:16;;;;;;;7.67;4.00;;;;;;;5.06;76.69;99126.25;1760292;80;21050;-68
2021/12/21 01:02:43;;;;;;;9.95;4.80;;;;;;;5.08;75.61;99121.73;1761104;80;21564;-65
2021/12/21 01:05:19;;;;;;;7.92;4.62;;;;;;;4.96;74.78;99122.31;1761171;80;21037;-69
2021/12/21 01:07:43;;;;;;;5.45;3.30;;;;;;;5.02;72.27;99124.20;1760289;80;21152;-63
2021/12/21 01:13:14;;;;;;;6.87;3.98;;;;;;;4.76;72.14;99124.58;1761754;80;21074;-68
2021/12/21 01:15:59;;;;;;;7.97;4.75;;;;;;;4.58;70.85;99129.55;1760335;80;21163;-63
2021/12/21 01:18:18;;;;;;;6.53;3.27;;;;;;;3.97;76.95;99131.16;1760010;80;21120;-64
2021/12/21 01:21:48;;;;;;;6.35;3.90;;;;;;;3.98;77.94;99132.79;1760595;80;22338;-67
2021/12/21 01:23:54;;;;;;;7.55;4.08;;;;;;;4.01;76.87;99132.43;1747843;80;21113;-65
2021/12/21 01:26:02;;;;;;;8.18;4.40;;;;;;;3.93;76.35;99133.76;1756908;80;21005;-64
2021/12/21 01:28:43;;;;;;;7.83;4.62;;;;;;;3.58;78.15;99143.55;1760613;80;21445;-69
2021/12/21 01:34:03;;;;;;;9.03;5.00;;;;;;;3.63;76.86;99144.33;1689521;84;21869;-66
2021/12/21 01:39:05;;;;;;;7.42;4.65;;;;;;;3.62;76.01;99140.95;1746204;80;21004;-64
2021/12/21 01:41:33;;;;;;;7.53;4.83;;;;;;;3.72;74.13;99145.94;1744815;80;21003;-64
2021/12/21 01:44:20;;;;;;;9.25;4.83;;;;;;;3.38;76.78;99150.05;1744227;80;21000;-63
2021/12/21 01:49:36;;;;;;;8.18;4.60;;;;;;;3.38;76.61;99153.42;1745513;80;21591;-67
2021/12/21 01:51:59;;;;;;;9.60;5.15;;;;;;;3.56;74.96;99164.83;1746392;80;21012;-68
2021/12/21 01:54:26;;;;;;;8.33;4.87;;;;;;;3.03;76.40;99170.03;1745634;80;20983;-63
2021/12/21 01:56:54;;;;;;;8.23;5.10;;;;;;;2.56;86.01;99175.77;1746796;80;21051;-63
2021/12/21 01:59:21;;;;;;;7.92;4.83;;;;;;;2.37;90.10;99182.47;1745178;80;21146;-65
2021/12/21 02:01:52;;;;;;;8.05;4.55;;;;;;;2.50;90.00;99184.58;1745802;80;21003;-62
2021/12/21 02:04:18;;;;;;;9.48;5.00;;;;;;;2.36;88.71;99179.09;1745385;80;21077;-64
2021/12/21 02:06:48;;;;;;;8.15;4.67;;;;;;;2.39;88.32;99177.98;1746771;80;20982;-64
2021/12/21 02:09:19;;;;;;;10.08;4.92;;;;;;;2.09;91.18;99182.70;1745230;80;20916;-63
2021/12/21 02:11:44;;;;;;;10.55;5.65;;;;;;;2.10;91.95;99181.73;1746537;80;21795;-63
2021/12/21 02:14:15;;;;;;;8.03;4.85;;;;;;;2.13;91.59;99178.06;1745031;79;21117;-64
2021/12/21 02:16:58;;;;;;;7.53;4.67;;;;;;;2.40;88.71;99183.45;1745832;80;20959;-65
2021/12/21 02:19:26;;;;;;;8.38;4.60;;;;;;;2.65;86.44;99188.15;1742656;80;20995;-68
2021/12/21 02:21:51;;;;;;;7.65;4.67;;;;;;;2.60;86.69;99190.40;1745290;80;22324;-63
2021/12/21 02:24:19;;;;;;;7.65;4.47;;;;;;;2.65;87.92;99192.84;1745468;80;21162;-64
2021/12/21 02:26:54;;;;;;;7.08;4.60;;;;;;;2.78;88.11;99200.57;1745354;80;21077;-64
2021/12/21 02:29:18;;;;;;;6.85;4.60;;;;;;;3.17;83.88;99200.27;1744475;80;21016;-63
2021/12/21 02:31:48;;;;;;;6.35;3.98;;;;;;;3.22;81.82;99203.67;1746457;80;21152;-64
2021/12/21 02:34:16;;;;;;;7.53;3.92;;;;;;;3.28;82.59;99202.20;1714200;82;21057;-69
2021/12/21 02:36:46;;;;;;;7.42;4.03;;;;;;;3.47;81.31;99204.44;1721431;82;22580;-67
2021/12/21 02:39:13;;;;;;;7.03;4.08;;;;;;;3.61;78.38;99215.37;1690496;83;21082;-64
2021/12/21 02:41:39;;;;;;;7.72;3.95;;;;;;;3.65;78.69;99209.41;1706284;82;21542;-64
2021/12/21 02:44:07;;;;;;;6.80;3.72;;;;;;;3.85;77.01;99207.27;1705981;82;21560;-64
2021/12/21 02:46:33;;;;;;;7.33;4.30;;;;;;;3.80;75.52;99205.67;1704639;82;20963;-68
2021/12/21 02:49:00;;;;;;;5.55;3.60;;;;;;;3.75;77.25;99206.64;1671981;83;21110;-64
2021/12/21 02:51:26;;;;;;;7.40;4.12;;;;;;;3.72;76.89;99211.66;1739616;80;21055;-64
2021/12/21 02:53:52;;;;;;;6.72;4.00;;;;;;;3.88;79.37;99215.97;1738468;80;21425;-64
2021/12/21 02:56:19;;;;;;;8.25;4.35;;;;;;;3.97;77.65;99218.83;1732099;80;21133;-64
2021/12/21 02:58:46;;;;;;;6.55;3.92;;;;;;;3.85;80.40;99218.38;1732424;81;20968;-68
2021/12/21 03:01:13;;;;;;;7.45;4.00;;;;;;;3.86;81.13;99221.30;1731754;80;22447;-64
2021/12/21 03:03:40;;;;;;;5.95;3.62;;;;;;;4.19;80.30;99234.56;1737265;80;21019;-64
2021/12/21 03:06:13;;;;;;;6.30;3.80;;;;;;;4.32;79.96;99230.98;1734698;80;21028;-64
2021/12/21 03:08:38;;;;;;;7.45;3.83;;;;;;;4.41;78.81;99242.86;1731284;80;21086;-66
2021/12/21 03:11:20;;;;;;;8.10;4.67;;;;;;;4.45;79.30;99244.13;1736836;80;21105;-65
2021/12/21 03:13:54;;;;;;;10.18;5.22;;;;;;;4.83;76.43;99237.31;1739663;80;21003;-64
2021/12/21 03:16:20;;;;;;;9.00;5.00;;;;;;;4.43;79.47;99241.39;1737143;80;21015;-67
2021/12/21 03:18:48;;;;;;;9.48;5.47;;;;;;;4.62;78.96;99246.13;1738730;80;20971;-64
2021/12/21 03:21:14;;;;;;;9.03;5.67;;;;;;;4.89;76.84;99243.59;1740234;80;22430;-64
2021/12/21 03:23:41;;;;;;;13.65;10.05;;;;;;;5.02;75.24;99250.27;1740454;80;21015;-65
2021/12/21 03:26:07;;;;;;;50.73;31.10;;;;;;;5.18;73.13;99252.42;1739733;80;21147;-64
2021/12/21 03:28:34;;;;;;;136.37;74.27;;;;;;;4.98;73.64;99257.24;1739444;80;21055;-67
2021/12/21 03:31:01;;;;;;;32.10;19.52;;;;;;;5.30;72.52;99255.73;1738271;80;21121;-64
2021/12/21 03:33:28;;;;;;;24.60;12.35;;;;;;;5.27;70.36;99257.86;1740302;80;20944;-64
2021/12/21 03:36:00;;;;;;;13.15;8.28;;;;;;;5.30;69.56;99260.07;1739600;80;21520;-64
2021/12/21 03:38:23;;;;;;;11.18;7.08;;;;;;;5.48;68.64;99257.99;1740152;80;21139;-69
2021/12/21 03:40:52;;;;;;;14.47;8.15;;;;;;;5.06;69.47;99256.69;1737826;80;20972;-68
2021/12/21 03:43:22;;;;;;;18.80;10.45;;;;;;;4.87;73.83;99255.84;1742748;80;22475;-64
2021/12/21 03:45:58;;;;;;;19.35;11.93;;;;;;;5.36;72.46;99257.61;1739752;80;20979;-64
2021/12/21 03:48:18;;;;;;;21.07;11.90;;;;;;;5.57;69.85;99259.55;1739160;80;20943;-64
2021/12/21 03:52:47;;;;;;;23.33;11.90;;;;;;;0.80;100.00;99282.23;1784217;78;22185;-64
2021/12/21 03:55:14;;;;;;;16.73;9.28;;;;;;;1.94;100.00;99285.77;1748498;81;20940;-65
2021/12/21 03:57:41;;;;;;;15.23;9.18;;;;;;;2.23;100.00;99285.42;1714696;83;21112;-65
2021/12/21 04:00:11;;;;;;;16.05;9.30;;;;;;;2.16;100.00;99285.73;1718956;82;20931;31
2021/12/21 04:02:38;;;;;;;20.23;9.38;;;;;;;2.06;100.00;99286.31;1689328;83;20978;-79
2021/12/21 04:05:06;;;;;;;15.60;8.83;;;;;;;1.99;100.00;99296.87;1686849;84;21042;-70
2021/12/21 04:07:34;;;;;;;20.10;9.30;;;;;;;1.88;100.00;99295.34;1687224;84;21030;-79
2021/12/21 04:10:02;;;;;;;17.75;9.55;;;;;;;2.26;100.00;99298.46;1687397;84;21112;-75
2021/12/21 04:12:33;;;;;;;14.80;9.73;;;;;;;2.41;100.00;99294.36;1687152;84;20982;-79
2021/12/21 04:15:02;;;;;;;19.75;9.10;;;;;;;2.09;100.00;99295.01;1687056;84;21007;-76
2021/12/21 04:17:28;;;;;;;16.80;9.20;;;;;;;2.34;100.00;99307.50;1687907;84;21340;-72
2021/12/21 04:19:54;;;;;;;12.88;7.55;;;;;;;2.38;100.00;99313.95;1686920;84;21074;-78
2021/12/21 04:22:23;;;;;;;10.78;6.90;;;;;;;2.56;100.00;99320.30;1681286;83;21155;-77
2021/12/21 04:24:49;;;;;;;14.23;8.18;;;;;;;2.22;100.00;99326.73;1687397;84;21031;-75
2021/12/21 04:27:16;;;;;;;14.35;6.70;;;;;;;2.22;100.00;99333.16;1687367;84;21019;-78
2021/12/21 04:29:43;;;;;;;10.45;6.47;;;;;;;1.79;100.00;99334.32;1687171;84;20973;-69
2021/12/21 04:32:09;;;;;;;9.83;6.17;;;;;;;1.83;100.00;99335.63;1687647;84;21022;-80
2021/12/21 04:34:38;;;;;;;11.73;7.45;;;;;;;2.22;100.00;99339.09;1687455;84;21158;-80
2021/12/21 04:37:06;;;;;;;10.60;6.47;;;;;;;2.40;100.00;99338.56;1686859;84;21067;-81
2021/12/21 04:39:49;;;;;;;11.70;7.25;;;;;;;2.27;100.00;99343.78;1687106;83;21066;-74
2021/12/21 04:42:14;;;;;;;10.35;6.35;;;;;;;2.41;100.00;99349.66;1678919;84;20967;-82
2021/12/21 04:44:41;;;;;;;11.33;6.47;;;;;;;2.26;100.00;99352.46;1686439;84;21071;-71
2021/12/21 04:47:07;;;;;;;11.83;6.85;;;;;;;2.37;100.00;99354.78;1687545;84;22077;-82
2021/12/21 04:49:33;;;;;;;12.65;7.25;;;;;;;2.42;100.00;99353.37;1687893;84;20939;-81
2021/12/21 04:52:00;;;;;;;11.97;7.10;;;;;;;2.36;100.00;99358.31;1686484;84;20951;-80
2021/12/21 04:54:27;;;;;;;11.73;7.60;;;;;;;2.30;100.00;99358.91;1686935;84;21674;-79
2021/12/21 04:56:53;;;;;;;13.28;8.15;;;;;;;2.30;100.00;99352.48;1675875;84;20963;-80
2021/12/21 04:59:20;;;;;;;13.18;8.23;;;;;;;2.39;100.00;99352.87;1687066;84;22239;-81
2021/12/21 05:01:47;;;;;;;13.00;8.58;;;;;;;2.35;100.00;99354.94;1687216;83;21114;-81
2021/12/21 05:04:14;;;;;;;12.45;7.60;;;;;;;2.50;100.00;99356.92;1685790;83;21002;-72
2021/12/21 05:06:42;;;;;;;14.00;8.53;;;;;;;2.63;100.00;99365.84;1686205;84;21062;-70
2021/12/21 05:09:21;;;;;;;11.83;7.75;;;;;;;3.07;100.00;99367.00;1687229;84;21106;-83
2021/12/21 05:11:44;;;;;;;11.97;7.50;;;;;;;3.73;100.00;99367.10;1685264;83;20908;-81
2021/12/21 05:14:10;;;;;;;12.45;7.92;;;;;;;3.20;100.00;99370.89;1686184;84;21120;-83
2021/12/21 05:16:37;;;;;;;13.78;8.35;;;;;;;3.39;100.00;99371.41;1686990;84;21456;-71
2021/12/21 05:19:04;;;;;;;13.20;7.67;;;;;;;3.79;100.00;99372.88;1687219;83;21421;-84
2021/12/21 05:21:33;;;;;;;13.85;8.18;;;;;;;3.68;100.00;99378.38;1674894;83;21475;-84
2021/12/21 05:23:59;;;;;;;12.80;8.75;;;;;;;3.92;99.52;99377.09;1679419;84;21137;-75
2021/12/21 05:26:27;;;;;;;19.30;10.68;;;;;;;3.54;99.87;99381.89;1681231;84;21070;-87
2021/12/21 05:28:54;;;;;;;21.73;12.40;;;;;;;3.66;99.88;99381.91;1679858;83;21004;-80
2021/12/21 05:31:20;;;;;;;24.40;11.78;;;;;;;4.04;96.07;99378.36;1691628;83;21430;-85
2021/12/21 05:33:50;;;;;;;22.30;11.18;;;;;;;3.98;93.57;99383.36;1689231;83;21059;-86
2021/12/21 05:36:15;;;;;;;18.87;9.83;;;;;;;3.93;91.29;99378.69;1686237;84;21175;-74
2021/12/21 05:38:47;;;;;;;16.95;9.23;;;;;;;3.99;88.73;99384.50;1687858;84;21006;-70
2021/12/21 05:41:21;;;;;;;13.72;8.65;;;;;;;3.99;86.25;99382.41;1656798;85;21158;-84
2021/12/21 05:43:38;;;;;;;15.45;8.70;;;;;;;3.89;85.83;99398.03;1685817;84;20990;-88
2021/12/21 05:46:05;;;;;;;16.75;8.05;;;;;;;3.86;85.85;99402.21;1687744;84;20909;-85
2021/12/21 05:48:31;;;;;;;13.78;9.63;;;;;;;4.17;82.54;99404.14;1686455;84;21191;-83
2021/12/21 05:50:58;;;;;;;16.65;10.03;;;;;;;3.40;86.71;99404.41;1681150;83;21678;-85
2021/12/21 05:53:25;;;;;;;17.05;10.78;;;;;;;3.18;92.84;99413.52;1687255;83;20943;-84
2021/12/21 05:55:51;;;;;;;17.50;9.58;;;;;;;3.39;93.46;99411.34;1685318;84;20955;-85
2021/12/21 05:58:21;;;;;;;13.95;8.53;;;;;;;3.37;93.64;99414.56;1685945;84;21105;-86
2021/12/21 06:00:46;;;;;;;11.70;7.42;;;;;;;3.47;92.84;99417.47;1673735;83;21171;-81
2021/12/21 06:03:14;;;;;;;11.73;8.08;;;;;;;3.39;93.17;99419.55;1689786;83;21097;-87
2021/12/21 06:05:41;;;;;;;12.37;7.70;;;;;;;3.44;94.24;99425.02;1681179;84;21093;-85
2021/12/21 06:08:10;;;;;;;13.13;8.25;;;;;;;3.33;96.07;99418.88;1651501;85;20982;-82
2021/12/21 06:10:40;;;;;;;14.13;8.18;;;;;;;3.66;95.32;99424.43;1669981;83;21117;-72
2021/12/21 06:26:16;;;;;;;15.48;7.65;;;;;;;3.65;91.40;99425.41;1692766;84;21648;-81
2021/12/21 06:28:44;;;;;;;13.25;7.08;;;;;;;3.76;88.82;99419.14;1694659;84;21525;-82
2021/12/21 06:31:10;;;;;;;9.85;6.15;;;;;;;3.83;89.86;99423.18;1694180;84;20962;-72
2021/12/21 06:33:38;;;;;;;9.18;5.42;;;;;;;3.89;87.87;99425.10;1683362;83;21537;-73
2021/12/21 06:36:07;;;;;;;8.93;5.75;;;;;;;4.10;83.84;99422.86;1665328;84;21096;-77
2021/12/21 06:38:35;;;;;;;9.58;6.33;;;;;;;4.14;80.69;99431.08;1665020;84;21106;-78
2021/12/21 06:41:01;;;;;;;9.05;5.47;;;;;;;4.35;77.70;99425.41;1685579;84;20915;-76
2021/12/21 06:43:30;;;;;;;10.00;5.67;;;;;;;4.35;76.22;99424.12;1692040;83;21538;-78
2021/12/21 06:46:11;;;;;;;11.10;5.70;;;;;;;4.27;74.64;99421.55;1689799;83;21357;-70
2021/12/21 06:51:23;;;;;;;11.22;6.22;;;;;;;4.38;74.25;99434.12;1664755;85;21169;-79
2021/12/21 06:53:48;;;;;;;9.05;5.75;;;;;;;4.66;74.46;99438.45;1690855;83;20968;-78
2021/12/21 06:56:18;;;;;;;8.88;5.20;;;;;;;4.91;72.81;99438.38;1693436;83;21093;-79
2021/12/21 06:58:44;;;;;;;13.35;7.58;;;;;;;5.10;70.96;99436.19;1693331;82;20971;-70
2021/12/21 07:01:13;;;;;;;12.37;6.60;;;;;;;5.03;70.37;99438.32;1697807;83;21003;-78
2021/12/21 07:03:41;;;;;;;17.37;10.00;;;;;;;5.36;67.93;99444.16;1686760;83;21127;-78
2021/12/21 07:06:08;;;;;;;10.13;6.00;;;;;;;5.32;67.48;99448.06;1679375;83;21132;-78
2021/12/21 07:08:45;;;;;;;9.75;6.47;;;;;;;5.40;66.19;99448.02;1683426;83;21002;-80
2021/12/21 07:11:24;;;;;;;12.30;7.05;;;;;;;5.07;65.19;99459.77;1677175;84;21139;-79
2021/12/21 07:19:14;;;;;;;13.08;7.25;;;;;;;5.30;67.13;99454.70;1650361;86;20954;-76
2021/12/21 07:21:43;;;;;;;12.50;7.08;;;;;;;5.56;64.29;99458.27;1649789;86;21016;-79
2021/12/21 07:24:08;;;;;;;12.45;7.37;;;;;;;5.28;63.63;99463.09;1645507;85;21496;-79
2021/12/21 07:26:35;;;;;;;12.80;7.25;;;;;;;5.49;62.24;99461.23;1648285;85;22239;-78
2021/12/21 07:29:02;;;;;;;13.00;7.90;;;;;;;5.11;63.61;99467.53;1649585;85;21138;-79
2021/12/21 07:31:28;;;;;;;12.73;8.45;;;;;;;5.03;65.42;99466.24;1648293;85;20991;-79
2021/12/21 07:33:58;;;;;;;11.48;7.22;;;;;;;5.14;66.23;99470.25;1654091;85;21014;-79
2021/12/21 07:36:26;;;;;;;13.50;6.50;;;;;;;5.37;65.08;99464.66;1649860;86;20967;-72
2021/12/21 07:38:53;;;;;;;11.50;6.47;;;;;;;5.63;63.13;99464.05;1649370;85;21532;-71
2021/12/21 07:41:20;;;;;;;13.20;7.03;;;;;;;5.58;61.44;99462.79;1649920;85;21642;-75
2021/12/21 07:43:47;;;;;;;11.10;6.97;;;;;;;5.82;61.28;99470.88;1652103;85;21137;-79
2021/12/21 07:46:14;;;;;;;10.82;5.97;;;;;;;5.93;60.99;99477.48;1650035;86;20952;-72
2021/12/21 07:48:41;;;;;;;11.73;6.65;;;;;;;6.25;59.95;99484.67;1649363;86;21097;-80
2021/12/21 07:51:09;;;;;;;16.70;7.80;;;;;;;6.44;57.98;99481.63;1649120;86;21551;-78
2021/12/21 07:53:36;;;;;;;18.20;10.35;;;;;;;6.00;58.35;99490.05;1649753;86;21096;-79
2021/12/21 07:56:03;;;;;;;12.43;8.13;;;;;;;5.64;60.81;99488.92;1649608;85;20980;-71
2021/12/21 07:58:31;;;;;;;13.75;8.28;;;;;;;5.32;60.35;99482.95;1644427;86;21081;-78
2021/12/21 08:00:58;;;;;;;19.82;10.03;;;;;;;5.34;59.60;99489.56;1638989;85;20974;-76
2021/12/21 08:03:28;;;;;;;17.37;9.83;;;;;;;5.07;60.37;99495.12;1661335;84;20963;-79
2021/12/21 08:05:58;;;;;;;21.77;11.22;;;;;;;5.38;61.46;99482.28;1665444;84;21166;-78
2021/12/21 08:08:27;;;;;;;39.70;19.42;;;;;;;5.76;59.50;99485.80;1660309;85;21015;-77
2021/12/21 08:11:08;;;;;;;12.95;7.97;;;;;;;5.49;59.59;99492.25;1664798;85;21046;-72
2021/12/21 08:13:22;;;;;;;16.25;8.15;;;;;;;5.31;59.95;99490.39;1658505;84;21082;-75
2021/12/21 08:15:50;;;;;;;13.72;8.43;;;;;;;5.33;61.01;99481.47;1662217;84;21093;-75
2021/12/21 08:18:16;;;;;;;12.35;7.30;;;;;;;5.07;60.77;99493.34;1662141;84;23391;-77
2021/12/21 08:20:43;;;;;;;11.48;7.22;;;;;;;5.12;60.54;99494.17;1659238;84;21085;-77
2021/12/21 08:23:09;;;;;;;10.15;7.15;;;;;;;5.08;61.71;99494.19;1649714;84;21070;-75
2021/12/21 08:25:36;;;;;;;14.83;7.03;;;;;;;5.04;63.31;99495.48;1659690;84;21169;-76
2021/12/21 08:28:06;;;;;;;11.50;6.97;;;;;;;5.20;63.87;99501.09;1657145;84;21145;-76
2021/12/21 08:30:33;;;;;;;9.85;5.95;;;;;;;5.32;62.61;99492.80;1653444;84;21116;-76
2021/12/21 08:33:00;;;;;;;9.03;6.08;;;;;;;5.60;61.39;99491.84;1655964;84;21078;-72
2021/12/21 08:35:27;;;;;;;8.33;5.62;;;;;;;5.56;60.25;99482.02;1657128;84;20967;-73
2021/12/21 08:38:00;;;;;;;11.63;6.47;;;;;;;5.42;60.78;99479.69;1661539;84;21092;-74
2021/12/21 08:40:22;;;;;;;8.93;5.22;;;;;;;5.51;61.54;99477.86;1654450;85;21025;-74
2021/12/21 08:42:52;;;;;;;7.97;5.00;;;;;;;5.52;60.49;99478.97;1680982;83;21081;-71
2021/12/21 08:45:21;;;;;;;8.98;5.33;;;;;;;5.48;59.58;99481.58;1676225;83;21094;-71
2021/12/21 08:47:46;;;;;;;10.53;5.62;;;;;;;5.54;59.58;99478.33;1675938;83;21106;-72
2021/12/21 08:50:13;;;;;;;8.35;4.12;;;;;;;5.54;59.74;99471.86;1674394;83;21081;-71
2021/12/21 08:52:40;;;;;;;12.50;5.47;;;;;;;5.95;58.99;99483.30;1657269;85;21837;-72
2021/12/21 08:55:08;;;;;;;7.35;4.47;;;;;;;5.94;57.19;99476.98;1654733;85;21195;-72
2021/12/21 08:57:36;;;;;;;7.33;5.15;;;;;;;5.92;56.63;99476.34;1658852;85;21122;-72
2021/12/21 09:00:07;;;;;;;8.03;4.70;;;;;;;5.78;57.21;99478.66;1685116;84;21023;-73
2021/12/21 09:02:36;;;;;;;8.10;4.62;;;;;;;5.79;56.87;99479.47;1685274;84;21512;-74
2021/12/21 09:05:11;;;;;;;7.45;4.50;;;;;;;6.02;57.80;99476.46;1683636;83;21045;-72
2021/12/21 09:07:38;;;;;;;9.23;5.28;;;;;;;6.38;56.89;99479.73;1684106;83;21109;-72
2021/12/21 09:10:06;;;;;;;8.85;6.20;;;;;;;6.40;55.99;99485.52;1681347;83;20999;-72
2021/12/21 09:12:35;;;;;;;9.90;5.17;;;;;;;6.48;56.17;99479.00;1682274;83;21013;-72
2021/12/21 09:15:05;;;;;;;10.32;5.58;;;;;;;6.32;56.52;99483.00;1685971;83;20950;-73
2021/12/21 09:17:32;;;;;;;10.68;6.70;;;;;;;6.58;56.62;99480.84;1679701;84;21172;-72
2021/12/21 09:20:02;;;;;;;13.00;6.47;;;;;;;6.28;57.23;99484.34;1683601;83;20954;-72
2021/12/21 09:22:28;;;;;;;9.18;5.90;;;;;;;6.24;57.53;99484.37;1683928;83;22382;-72
2021/12/21 09:24:57;;;;;;;16.37;7.28;;;;;;;6.01;58.35;99486.47;1679409;85;20962;-72
2021/12/21 09:27:24;;;;;;;11.33;5.75;;;;;;;6.66;57.61;99471.38;1674079;83;21083;-71
2021/12/21 09:29:50;;;;;;;9.55;5.62;;;;;;;6.52;56.00;99480.27;1683214;83;21057;-71
2021/12/21 09:32:18;;;;;;;8.43;4.78;;;;;;;6.31;55.51;99482.20;1684483;83;21295;-72
2021/12/21 09:34:45;;;;;;;8.48;5.58;;;;;;;6.18;56.28;99479.91;1681538;83;21085;-72
2021/12/21 09:37:19;;;;;;;7.95;5.00;;;;;;;6.09;55.83;99477.84;1683326;84;21018;-72
2021/12/21 09:39:47;;;;;;;7.80;4.50;;;;;;;5.94;56.05;99471.81;1681597;84;21081;-72
2021/12/21 09:42:17;;;;;;;7.80;4.47;;;;;;;6.00;55.66;99472.42;1680334;85;20974;-73
2021/12/21 09:44:46;;;;;;;7.33;4.60;;;;;;;6.03;55.19;99472.89;1685075;84;21342;-71
2021/12/21 09:47:12;;;;;;;8.10;4.17;;;;;;;6.30;54.49;99472.84;1683396;85;21398;-72
2021/12/21 09:49:42;;;;;;;8.25;3.95;;;;;;;5.98;54.81;99473.07;1681424;85;21572;-73
2021/12/21 09:52:12;;;;;;;6.75;4.10;;;;;;;6.24;53.86;99477.90;1683963;84;21083;-73
2021/12/21 09:54:39;;;;;;;8.03;4.00;;;;;;;6.41;53.23;99482.47;1683231;83;21005;-71
2021/12/21 09:57:07;;;;;;;5.28;3.67;;;;;;;5.77;53.75;99487.90;1683061;83;21429;-72
2021/12/21 09:59:35;;;;;;;7.35;3.77;;;;;;;5.51;54.38;99487.70;1677964;83;20987;-72
2021/12/21 10:02:02;;;;;;;6.03;3.42;;;;;;;6.32;53.02;99476.53;1665127;84;21078;-73
2021/12/21 10:04:30;;;;;;;5.37;3.20;;;;;;;6.25;53.09;99478.20;1675773;83;21039;-72
2021/12/21 10:06:57;;;;;;;6.25;3.10;;;;;;;5.71;54.21;99479.52;1682336;83;21044;-74
2021/12/21 10:09:36;;;;;;;6.25;3.10;;;;;;;5.84;54.57;99478.48;1665832;85;21341;-73
2021/12/21 10:12:01;;;;;;;5.67;3.02;;;;;;;5.82;54.78;99482.52;1673169;84;22476;-75
2021/12/21 10:14:28;;;;;;;5.20;2.90;;;;;;;5.85;55.24;99477.50;1672566;83;20948;-71
2021/12/21 10:17:06;;;;;;;5.08;2.98;;;;;;;4.81;57.50;99480.69;1679805;84;21080;-73
2021/12/21 10:19:35;;;;;;;6.72;3.55;;;;;;;4.60;60.37;99480.39;1656613;84;20915;-75
2021/12/21 10:22:14;;;;;;;12.25;3.72;;;;;;;4.12;64.92;99479.43;1634344;84;21524;-72
2021/12/21 10:24:50;;;;;;;6.00;3.30;;;;;;;4.80;63.38;99476.97;1674748;83;21944;-73
2021/12/21 10:27:19;;;;;;;6.33;4.10;;;;;;;5.08;60.25;99479.98;1673890;83;21071;-75
2021/12/21 10:29:48;;;;;;;6.42;3.80;;;;;;;5.13;59.28;99474.61;1676831;84;21554;-74
2021/12/21 10:32:31;;;;;;;7.50;3.60;;;;;;;5.10;58.58;99480.11;1671603;83;21185;-74
2021/12/21 10:35:07;;;;;;;8.15;3.70;;;;;;;4.12;61.72;99491.84;1665047;83;21205;-73
2021/12/21 10:37:37;;;;;;;8.75;3.22;;;;;;;4.67;60.43;99484.42;1674649;84;20952;-72
2021/12/21 10:40:22;;;;;;;6.20;3.05;;;;;;;4.68;57.81;99482.95;1681984;83;21697;-73
2021/12/21 10:42:53;;;;;;;5.17;3.10;;;;;;;5.23;58.09;99477.50;1646254;85;21074;-73
2021/12/21 10:45:24;;;;;;;5.10;2.58;;;;;;;4.52;59.62;99488.15;1675914;83;20978;-73
2021/12/21 10:47:50;;;;;;;;;;;;;;;4.29;59.80;99488.80;1659343;85;21236;-72
2021/12/21 10:50:17;;;;;;;5.30;2.92;;;;;;;4.23;60.28;99490.72;1675610;83;20145;-71
2021/12/21 10:52:51;;;;;;;5.97;2.70;;;;;;;4.56;59.73;99485.56;1682662;84;20954;-72
2021/12/21 10:55:33;;;;;;;4.83;2.67;;;;;;;5.09;58.30;99489.33;1650242;85;21510;-72
2021/12/21 10:58:06;;;;;;;5.97;3.60;;;;;;;5.61;57.55;99488.80;1681905;84;21532;-73
2021/12/21 11:00:35;;;;;;;6.87;3.10;;;;;;;5.69;56.48;99490.05;1686749;84;22178;-72
2021/12/21 11:03:01;;;;;;;8.20;5.15;;;;;;;5.83;55.27;99493.66;1685210;83;21093;-72
2021/12/21 11:05:28;;;;;;;8.10;4.30;;;;;;;6.23;54.32;99487.45;1659991;85;21133;-72
2021/12/21 11:08:04;;;;;;;7.33;4.45;;;;;;;6.65;53.01;99493.89;1675008;84;21035;-72
2021/12/21 11:10:30;;;;;;;7.80;4.45;;;;;;;6.60;52.12;99490.23;1653583;86;21102;-72
2021/12/21 11:13:08;;;;;;;6.08;3.65;;;;;;;6.29;51.58;99493.23;1644235;85;21814;-72
2021/12/21 11:15:53;;;;;;;6.95;4.12;;;;;;;6.26;51.96;99494.07;1657523;85;21074;-72
2021/12/21 11:18:17;;;;;;;7.33;4.25;;;;;;;6.35;52.13;99490.42;1676998;84;22409;-71
2021/12/21 11:20:48;;;;;;;8.35;4.72;;;;;;;6.32;52.20;99492.06;1685375;84;21535;-73
2021/12/21 11:23:17;;;;;;;7.95;4.20;;;;;;;6.61;51.43;99495.22;1683899;84;21078;-74
2021/12/21 11:25:46;;;;;;;7.20;4.40;;;;;;;6.73;50.32;99491.71;1684659;84;21141;-73
2021/12/21 11:28:17;;;;;;;7.60;4.20;;;;;;;6.57;50.48;99493.97;1684221;85;20971;-71
2021/12/21 11:30:44;;;;;;;7.58;4.37;;;;;;;6.54;49.79;99499.00;1682961;83;21090;-73
2021/12/21 11:33:11;;;;;;;8.55;5.05;;;;;;;6.44;50.07;99498.92;1681422;83;21510;-73
2021/12/21 11:38:07;;;;;;;8.75;5.20;;;;;;;5.91;51.57;99503.98;1682736;84;21173;-72
2021/12/21 11:40:43;;;;;;;10.32;5.17;;;;;;;5.77;51.22;99511.17;1658141;84;20940;-74
2021/12/21 11:43:30;;;;;;;15.10;4.22;;;;;;;4.83;53.08;99518.75;1658938;84;21083;-76
2021/12/21 11:46:00;;;;;;;7.78;4.83;;;;;;;4.62;54.47;99524.44;1670447;83;21094;-72
2021/12/21 11:48:48;;;;;;;6.47;4.12;;;;;;;4.79;53.66;99527.00;1676769;83;21589;-75
2021/12/21 11:51:15;;;;;;;5.50;3.40;;;;;;;4.80;54.02;99520.86;1677591;84;21081;-75
2021/12/21 11:53:42;;;;;;;7.28;3.55;;;;;;;4.63;54.50;99540.24;1683933;84;21084;-74
2021/12/21 11:56:16;;;;;;;7.10;4.62;;;;;;;4.58;54.99;99536.52;1685057;83;22051;-73
2021/12/21 11:58:42;;;;;;;6.60;4.10;;;;;;;4.73;55.35;99538.77;1684488;83;21607;-74
2021/12/21 12:01:17;;;;;;;11.22;5.72;;;;;;;4.58;55.78;99536.52;1684781;84;21035;-74
2021/12/21 12:04:03;;;;;;;8.58;4.72;;;;;;;4.87;55.97;99542.48;1680989;83;22097;-76
2021/12/21 12:06:53;;;;;;;6.47;4.35;;;;;;;4.99;55.99;99534.70;1680320;83;21483;-73
2021/12/21 12:09:27;;;;;;;5.70;3.62;;;;;;;5.06;56.24;99536.95;1685303;85;20987;-73
2021/12/21 12:12:14;;;;;;;8.28;4.10;;;;;;;5.01;55.49;99534.06;1656512;86;21050;-74
2021/12/21 12:14:45;;;;;;;6.87;3.80;;;;;;;5.16;55.24;99530.81;1621895;86;21038;-74
2021/12/21 12:17:22;;;;;;;7.70;3.42;;;;;;;5.21;55.51;99534.98;1684908;83;21815;-74
2021/12/21 12:19:58;;;;;;;7.15;4.28;;;;;;;5.16;55.48;99542.44;1684448;85;21618;-75
2021/12/21 12:22:45;;;;;;;7.17;4.60;;;;;;;4.52;56.90;99535.89;1657145;86;21078;-76
2021/12/21 12:25:21;;;;;;;9.38;4.17;;;;;;;4.80;56.31;99541.52;1655292;86;21492;-72
2021/12/21 12:27:50;;;;;;;8.43;5.03;;;;;;;4.79;56.58;99547.66;1659525;84;21147;-77